createdAt,value
2022-09-12T00:01:10.126Z,20.67
2022-09-12T00:03:44.827Z,19.48
2022-09-12T00:06:22.406Z,21.75
2022-09-12T00:08:50.942Z,21.27
2022-09-12T00:11:19.649Z,21.02
2022-09-12T00:13:47.400Z,21.75
2022-09-12T00:16:18.068Z,21.40
2022-09-12T00:18:47.529Z,20.98
2022-09-12T00:21:16.124Z,21.50
2022-09-12T00:23:44.333Z,20.23
2022-09-12T00:26:12.513Z,20.58
2022-09-12T00:28:41.807Z,23.13
2022-09-12T00:31:12.112Z,23.17
2022-09-12T00:33:42.512Z,24.27
2022-09-12T00:36:12.184Z,25.55
2022-09-12T00:38:41.951Z,24.10
2022-09-12T00:41:17.250Z,23.45
2022-09-12T00:43:46.888Z,24.95
2022-09-12T00:46:26.676Z,25.60
2022-09-12T00:49:00.600Z,24.92
2022-09-12T00:51:32.825Z,25.25
2022-09-12T00:54:03.786Z,24.02
2022-09-12T00:56:33.561Z,24.88
2022-09-12T00:59:09.322Z,24.33
2022-09-12T01:01:38.816Z,26.45
2022-09-12T01:04:09.368Z,25.63
2022-09-12T01:06:40.825Z,26.25
2022-09-12T01:09:10.834Z,26.40
2022-09-12T01:11:41.137Z,24.17
2022-09-12T01:14:10.021Z,25.13
2022-09-12T01:16:38.837Z,24.05
2022-09-12T01:19:26.580Z,24.27
2022-09-12T01:22:06.498Z,24.70
2022-09-12T01:24:55.542Z,24.25
2022-09-12T01:27:39.102Z,22.88
2022-09-12T01:30:30.926Z,25.27
2022-09-12T01:33:13.443Z,24.65
2022-09-12T01:35:52.429Z,25.73
2022-09-12T01:38:29.013Z,25.00
2022-09-12T01:41:07.517Z,26.90
2022-09-12T01:43:41.033Z,25.40
2022-09-12T01:46:17.385Z,27.45
2022-09-12T01:48:54.276Z,26.50
2022-09-12T01:51:27.267Z,31.05
2022-09-12T01:54:00.781Z,27.42
2022-09-12T01:56:33.537Z,30.15
2022-09-12T01:59:06.079Z,28.63
2022-09-12T02:04:12.122Z,28.38
2022-09-12T02:06:47.355Z,27.33
2022-09-12T02:09:21.953Z,28.23
2022-09-12T02:11:53.148Z,30.95
2022-09-12T02:14:25.499Z,31.45
2022-09-12T02:16:59.783Z,33.72
2022-09-12T02:19:32.421Z,32.30
2022-09-12T02:22:03.573Z,32.13
2022-09-12T02:24:37.317Z,32.75
2022-09-12T02:27:10.981Z,34.28
2022-09-12T02:29:39.481Z,34.17
2022-09-12T02:32:17.534Z,32.83
2022-09-12T02:34:49.650Z,32.45
2022-09-12T02:37:27.187Z,34.00
2022-09-12T02:39:57.102Z,33.78
2022-09-12T02:42:25.657Z,32.63
2022-09-12T02:44:56.889Z,34.25
2022-09-12T02:47:30.832Z,33.95
2022-09-12T02:50:00.668Z,33.75
2022-09-12T02:52:29.765Z,32.45
2022-09-12T02:54:59.138Z,32.75
2022-09-12T02:57:27.334Z,33.15
2022-09-12T02:59:59.864Z,31.73
2022-09-12T03:02:46.605Z,33.33
2022-09-12T03:05:23.712Z,33.10
2022-09-12T03:08:15.229Z,31.83
2022-09-12T03:11:07.125Z,32.10
2022-09-12T03:13:41.818Z,30.40
2022-09-12T03:16:20.357Z,32.70
2022-09-12T03:18:58.558Z,32.05
2022-09-12T03:21:31.909Z,32.15
2022-09-12T03:24:12.310Z,33.72
2022-09-12T03:26:45.548Z,33.47
2022-09-12T03:29:15.469Z,34.78
2022-09-12T03:31:52.569Z,34.22
2022-09-12T03:34:23.730Z,34.33
2022-09-12T03:36:52.153Z,35.92
2022-09-12T03:39:20.339Z,32.88
2022-09-12T03:41:48.242Z,33.58
2022-09-12T03:44:16.300Z,33.13
2022-09-12T03:46:44.453Z,31.95
2022-09-12T03:49:12.526Z,31.35
2022-09-12T03:51:43.017Z,31.88
2022-09-12T03:54:12.001Z,31.83
2022-09-12T03:56:41.526Z,31.00
2022-09-12T03:59:09.578Z,31.00
2022-09-12T04:01:38.035Z,30.85
2022-09-12T04:04:06.237Z,31.02
2022-09-12T04:06:34.409Z,31.48
2022-09-12T04:09:03.601Z,31.48
2022-09-12T04:11:32.209Z,32.35
2022-09-12T04:14:00.482Z,32.50
2022-09-12T04:16:28.429Z,32.20
2022-09-12T04:18:56.366Z,31.08
2022-09-12T04:21:24.629Z,33.42
2022-09-12T04:23:52.889Z,30.15
2022-09-12T04:26:22.590Z,31.40
2022-09-12T04:28:54.898Z,30.85
2022-09-12T04:31:23.573Z,32.53
2022-09-12T04:33:55.189Z,29.73
2022-09-12T04:36:23.799Z,32.33
2022-09-12T04:38:52.529Z,32.83
2022-09-12T04:41:24.196Z,32.60
2022-09-12T04:43:54.001Z,30.85
2022-09-12T04:46:23.664Z,29.65
2022-09-12T04:48:56.510Z,30.23
2022-09-12T04:51:28.670Z,31.98
2022-09-12T04:53:58.053Z,30.20
2022-09-12T04:56:28.941Z,30.27
2022-09-12T04:58:58.152Z,31.55
2022-09-12T05:01:26.895Z,31.20
2022-09-12T05:03:56.604Z,30.38
2022-09-12T05:06:26.762Z,32.28
2022-09-12T05:08:55.945Z,30.00
2022-09-12T05:11:36.745Z,31.48
2022-09-12T05:14:11.074Z,31.00
2022-09-12T05:16:40.962Z,28.63
2022-09-12T05:19:09.177Z,30.75
2022-09-12T05:21:37.095Z,30.67
2022-09-12T05:24:06.171Z,30.13
2022-09-12T05:26:33.980Z,30.08
2022-09-12T05:29:01.812Z,27.70
2022-09-12T05:31:31.211Z,31.52
2022-09-12T05:33:58.919Z,30.58
2022-09-12T05:36:29.722Z,29.25
2022-09-12T05:38:58.372Z,28.77
2022-09-12T05:41:27.792Z,30.15
2022-09-12T05:43:58.401Z,28.65
2022-09-12T05:46:28.771Z,29.35
2022-09-12T05:48:58.374Z,28.90
2022-09-12T05:51:28.358Z,27.77
2022-09-12T05:53:58.368Z,26.42
2022-09-12T05:56:28.269Z,26.23
2022-09-12T05:58:58.779Z,25.30
2022-09-12T06:01:29.473Z,26.50
2022-09-12T06:04:01.460Z,25.65
2022-09-12T06:09:00.338Z,24.55
2022-09-12T06:11:30.270Z,23.08
2022-09-12T06:13:59.200Z,25.23
2022-09-12T06:16:28.916Z,24.60
2022-09-12T06:18:59.937Z,21.38
2022-09-12T06:21:28.460Z,21.55
2022-09-12T06:23:56.437Z,18.73
2022-09-12T06:26:25.703Z,17.27
2022-09-12T06:28:55.257Z,16.50
2022-09-12T06:31:25.723Z,15.80
2022-09-12T06:33:55.271Z,15.10
2022-09-12T06:36:26.211Z,16.13
2022-09-12T06:38:59.346Z,15.07
2022-09-12T06:41:28.612Z,14.35
2022-09-12T06:43:57.093Z,14.80
2022-09-12T06:46:25.573Z,14.95
2022-09-12T06:48:54.726Z,14.07
2022-09-12T06:51:24.539Z,13.65
2022-09-12T06:53:52.845Z,13.43
2022-09-12T06:56:22.425Z,13.55
2022-09-12T06:58:53.110Z,14.20
2022-09-12T07:01:22.192Z,14.80
2022-09-12T07:03:52.332Z,13.57
2022-09-12T07:06:21.931Z,13.20
2022-09-12T07:08:51.634Z,13.25
2022-09-12T07:11:21.738Z,12.77
2022-09-12T07:13:50.984Z,14.07
2022-09-12T07:16:20.049Z,12.40
2022-09-12T07:18:51.615Z,11.82
2022-09-12T07:21:19.447Z,11.00
2022-09-12T07:23:48.036Z,10.80
2022-09-12T07:26:17.968Z,11.45
2022-09-12T07:28:46.089Z,9.98
2022-09-12T07:31:16.987Z,9.90
2022-09-12T07:33:45.232Z,8.43
2022-09-12T07:36:14.712Z,8.85
2022-09-12T07:38:43.809Z,8.23
2022-09-12T07:41:12.982Z,8.30
2022-09-12T07:43:42.744Z,7.50
2022-09-12T07:46:11.435Z,9.05
2022-09-12T07:48:40.921Z,7.72
2022-09-12T07:51:10.848Z,7.43
2022-09-12T07:53:41.099Z,6.80
2022-09-12T07:56:11.258Z,7.43
2022-09-12T07:58:40.780Z,6.60
2022-09-12T08:01:13.133Z,6.20
2022-09-12T08:03:42.054Z,5.45
2022-09-12T08:06:11.565Z,5.35
2022-09-12T08:08:40.026Z,5.43
2022-09-12T08:11:10.307Z,5.95
2022-09-12T08:13:39.581Z,6.00
2022-09-12T08:16:12.395Z,5.93
2022-09-12T08:18:40.808Z,4.85
2022-09-12T08:21:13.080Z,4.18
2022-09-12T08:23:41.098Z,3.83
2022-09-12T08:26:09.305Z,3.42
2022-09-12T08:28:37.948Z,2.90
2022-09-12T08:31:07.893Z,3.22
2022-09-12T08:33:37.157Z,3.05
2022-09-12T08:36:06.998Z,3.55
2022-09-12T08:38:35.677Z,4.32
2022-09-12T08:41:09.068Z,4.55
2022-09-12T08:44:03.128Z,5.20
2022-09-12T08:46:39.956Z,4.82
2022-09-12T08:49:13.692Z,4.03
2022-09-12T08:51:41.912Z,3.88
2022-09-12T08:54:22.692Z,4.07
2022-09-12T08:56:50.493Z,3.30
2022-09-12T08:59:18.671Z,3.60
2022-09-12T09:01:46.652Z,3.13
2022-09-12T09:04:32.447Z,3.80
2022-09-12T09:07:27.934Z,3.50
2022-09-12T09:10:15.483Z,3.17
2022-09-12T09:12:52.345Z,3.70
2022-09-12T09:15:45.168Z,3.35
2022-09-12T09:18:18.521Z,3.10
2022-09-12T09:20:52.203Z,2.80
2022-09-12T09:23:26.068Z,2.83
2022-09-12T09:25:58.993Z,3.00
2022-09-12T09:28:35.005Z,2.53
2022-09-12T09:31:03.565Z,2.20
2022-09-12T09:33:35.581Z,2.90
2022-09-12T09:36:22.337Z,2.70
2022-09-12T09:38:51.903Z,2.38
2022-09-12T09:41:46.744Z,2.25
2022-09-12T09:44:15.064Z,2.50
2022-09-12T09:46:42.839Z,2.45
2022-09-12T09:49:14.911Z,2.10
2022-09-12T09:54:21.001Z,2.75
2022-09-12T09:56:49.434Z,1.77
2022-09-12T09:59:19.587Z,1.95
2022-09-12T10:01:50.677Z,1.67
2022-09-12T10:04:20.974Z,1.80
2022-09-12T10:06:52.572Z,1.88
2022-09-12T10:09:23.842Z,1.92
2022-09-12T10:11:52.737Z,1.70
2022-09-12T10:14:44.302Z,1.92
2022-09-12T10:17:33.815Z,2.58
2022-09-12T10:20:20.379Z,2.00
2022-09-12T10:22:50.851Z,1.90
2022-09-12T10:25:20.571Z,2.28
2022-09-12T10:27:56.147Z,2.15
2022-09-12T10:30:25.869Z,1.70
2022-09-12T10:32:54.048Z,1.70
2022-09-12T10:35:23.525Z,1.70
2022-09-12T10:37:56.609Z,1.50
2022-09-12T10:40:27.462Z,2.13
2022-09-12T10:42:58.734Z,1.88
2022-09-12T10:45:29.975Z,1.90
2022-09-12T10:48:03.029Z,1.98
2022-09-12T10:50:40.338Z,1.98
2022-09-12T10:53:21.280Z,2.40
2022-09-12T10:56:03.758Z,2.15
2022-09-12T10:58:53.615Z,2.17
2022-09-12T11:01:38.315Z,2.00
2022-09-12T11:04:21.558Z,1.75
2022-09-12T11:06:58.136Z,1.88
2022-09-12T11:09:35.750Z,2.38
2022-09-12T11:12:12.761Z,2.15
2022-09-12T11:14:57.308Z,1.67
2022-09-12T11:17:32.917Z,1.70
2022-09-12T11:20:20.624Z,2.17
2022-09-12T11:23:08.967Z,2.25
2022-09-12T11:25:48.040Z,1.90
2022-09-12T11:28:46.632Z,2.05
2022-09-12T11:31:35.199Z,1.90
2022-09-12T11:34:09.460Z,2.30
2022-09-12T11:36:46.265Z,2.30
2022-09-12T11:39:16.346Z,1.98
2022-09-12T11:41:50.374Z,2.55
2022-09-12T11:44:21.790Z,2.60
2022-09-12T11:46:52.139Z,2.15
2022-09-12T11:49:27.553Z,1.60
2022-09-12T11:52:01.433Z,1.83
2022-09-12T11:54:33.793Z,1.70
2022-09-12T11:57:12.264Z,2.08
2022-09-12T11:59:47.737Z,1.75
2022-09-12T12:02:23.538Z,2.20
2022-09-12T12:05:04.850Z,1.80
2022-09-12T12:07:45.539Z,1.58
2022-09-12T12:10:26.882Z,1.98
2022-09-12T12:12:57.572Z,1.63
2022-09-12T12:15:26.588Z,1.77
2022-09-12T12:18:08.139Z,1.77
2022-09-12T12:20:37.092Z,1.75
2022-09-12T12:23:05.270Z,1.55
2022-09-12T12:25:54.964Z,1.83
2022-09-12T12:29:00.041Z,2.10
2022-09-12T12:31:28.491Z,1.38
2022-09-12T12:34:22.604Z,1.45
2022-09-12T12:36:50.439Z,1.50
2022-09-12T12:40:04.780Z,2.08
2022-09-12T12:43:29.302Z,1.20
2022-09-12T12:46:14.224Z,1.77
2022-09-12T12:49:05.360Z,2.22
2022-09-12T12:52:01.193Z,1.80
2022-09-12T12:54:48.342Z,1.65
2022-09-12T12:57:20.270Z,1.80
2022-09-12T12:59:52.550Z,1.88
2022-09-12T13:02:26.291Z,1.30
2022-09-12T13:04:55.912Z,2.15
2022-09-12T13:07:29.789Z,1.83
2022-09-12T13:10:00.469Z,2.10
2022-09-12T13:12:31.484Z,1.48
2022-09-12T13:15:00.643Z,1.75
2022-09-12T13:17:38.844Z,2.00
2022-09-12T13:20:29.205Z,1.60
2022-09-12T13:22:58.580Z,1.98
2022-09-12T13:25:31.726Z,1.70
2022-09-12T13:28:01.843Z,2.15
2022-09-12T13:30:32.106Z,1.90
2022-09-12T13:33:10.056Z,2.00
2022-09-12T13:35:50.354Z,1.60
2022-09-12T13:38:27.540Z,1.42
2022-09-12T13:41:10.544Z,1.50
2022-09-12T13:43:42.148Z,1.65
2022-09-12T13:46:14.548Z,1.50
2022-09-12T13:48:44.898Z,1.38
2022-09-12T13:51:24.523Z,1.58
2022-09-12T13:53:56.148Z,1.75
2022-09-12T13:56:24.057Z,1.52
2022-09-12T13:58:53.985Z,1.30
2022-09-12T14:01:22.446Z,1.42
2022-09-12T14:04:10.932Z,1.60
2022-09-12T14:06:49.444Z,1.20
2022-09-12T14:09:25.288Z,1.20
2022-09-12T14:11:54.662Z,1.30
2022-09-12T14:14:31.347Z,1.25
2022-09-12T14:17:00.126Z,1.48
2022-09-12T14:19:30.087Z,1.50
2022-09-12T14:21:58.410Z,1.30
2022-09-12T14:24:26.633Z,1.40
2022-09-12T14:26:56.854Z,1.42
2022-09-12T14:29:26.186Z,1.88
2022-09-12T14:32:02.517Z,1.38
2022-09-12T14:34:32.121Z,2.20
2022-09-12T14:37:00.270Z,2.33
2022-09-12T14:39:32.977Z,51.83
2022-09-12T14:42:07.622Z,2.00
2022-09-12T14:44:36.866Z,1.52
2022-09-12T14:47:15.986Z,2.30
2022-09-12T14:49:45.496Z,1.58
2022-09-12T14:52:26.592Z,2.10
2022-09-12T14:54:59.781Z,1.92
2022-09-12T14:57:35.068Z,1.65
2022-09-12T15:00:27.892Z,1.95
2022-09-12T15:02:55.945Z,1.83
2022-09-12T15:05:29.480Z,2.10
2022-09-12T15:07:59.994Z,1.88
2022-09-12T15:10:31.863Z,1.63
2022-09-12T15:13:18.962Z,1.73
2022-09-12T15:15:48.836Z,2.05
2022-09-12T15:18:18.200Z,2.03
2022-09-12T15:20:50.847Z,1.60
2022-09-12T15:23:23.068Z,2.42
2022-09-12T15:25:50.984Z,2.67
2022-09-12T15:28:21.294Z,2.22
2022-09-12T15:30:51.301Z,2.25
2022-09-12T15:33:20.874Z,2.80
2022-09-12T15:35:50.928Z,3.47
2022-09-12T15:38:21.948Z,2.78
2022-09-12T15:40:53.900Z,2.38
2022-09-12T15:43:22.401Z,2.90
2022-09-12T15:45:52.231Z,3.13
2022-09-12T15:48:21.034Z,2.85
2022-09-12T15:50:50.271Z,3.53
2022-09-12T15:53:18.477Z,2.05
2022-09-12T15:55:46.602Z,1.98
2022-09-12T15:58:14.610Z,2.65
2022-09-12T16:00:42.345Z,2.40
2022-09-12T16:03:21.790Z,2.17
2022-09-12T16:05:51.195Z,2.35
2022-09-12T16:08:19.233Z,2.90
2022-09-12T16:10:55.436Z,2.65
2022-09-12T16:13:23.869Z,2.50
2022-09-12T16:15:52.729Z,2.50
2022-09-12T16:18:20.641Z,2.97
2022-09-12T16:20:48.551Z,3.92
2022-09-12T16:23:17.653Z,4.03
2022-09-12T16:25:58.012Z,4.32
2022-09-12T16:28:27.105Z,2.90
2022-09-12T16:30:58.799Z,3.20
2022-09-12T16:33:27.509Z,3.58
2022-09-12T16:36:03.467Z,3.03
2022-09-12T16:38:33.791Z,2.80
2022-09-12T16:41:01.942Z,3.03
2022-09-12T16:43:31.014Z,3.80
2022-09-12T16:46:03.761Z,3.17
2022-09-12T16:48:32.536Z,2.88
2022-09-12T16:51:02.037Z,3.75
2022-09-12T16:53:33.069Z,2.83
2022-09-12T16:56:01.377Z,3.47
2022-09-12T16:58:29.249Z,3.38
2022-09-12T17:01:06.038Z,3.58
2022-09-12T17:03:35.782Z,4.70
2022-09-12T17:06:07.712Z,4.47
2022-09-12T17:08:39.008Z,5.45
2022-09-12T17:11:08.922Z,5.67
2022-09-12T17:14:00.537Z,4.65
2022-09-12T17:16:26.548Z,4.80
2022-09-12T17:18:54.786Z,5.15
2022-09-12T17:21:22.826Z,4.45
2022-09-12T17:23:52.105Z,4.80
2022-09-12T17:26:20.703Z,4.75
2022-09-12T17:28:48.768Z,5.05
2022-09-12T17:31:17.145Z,5.20
2022-09-12T17:33:45.383Z,4.95
2022-09-12T17:36:16.499Z,4.45
2022-09-12T17:38:46.752Z,4.38
2022-09-12T17:41:18.094Z,4.72
2022-09-12T17:43:47.505Z,4.43
2022-09-12T17:46:15.586Z,4.60
2022-09-12T17:48:43.665Z,4.68
2022-09-12T17:51:13.360Z,4.13
2022-09-12T17:53:41.894Z,4.57
2022-09-12T17:56:11.297Z,4.53
2022-09-12T17:58:40.737Z,5.35
2022-09-12T18:01:30.652Z,6.85
2022-09-12T18:04:01.003Z,5.72
2022-09-12T18:06:29.509Z,5.35
2022-09-12T18:09:00.007Z,6.50
2022-09-12T18:11:28.167Z,5.15
2022-09-12T18:13:58.973Z,5.57
2022-09-12T18:16:28.160Z,4.80
2022-09-12T18:18:56.695Z,4.88
2022-09-12T18:21:24.726Z,4.80
2022-09-12T18:23:52.462Z,5.00
2022-09-12T18:26:20.223Z,4.85
2022-09-12T18:28:48.195Z,5.00
2022-09-12T18:31:18.721Z,4.78
2022-09-12T18:33:47.204Z,5.32
2022-09-12T18:36:16.668Z,6.68
2022-09-12T18:38:44.424Z,6.45
2022-09-12T18:41:16.415Z,6.03
2022-09-12T18:43:45.071Z,6.20
2022-09-12T18:46:14.505Z,6.03
2022-09-12T18:48:45.027Z,7.88
2022-09-12T18:53:43.888Z,6.15
2022-09-12T18:56:13.631Z,6.28
2022-09-12T18:58:43.958Z,6.07
2022-09-12T19:01:13.176Z,5.82
2022-09-12T19:03:41.424Z,6.05
2022-09-12T19:06:13.555Z,6.28
2022-09-12T19:08:41.843Z,6.63
2022-09-12T19:11:11.132Z,7.57
2022-09-12T19:13:41.370Z,5.57
2022-09-12T19:16:12.601Z,5.38
2022-09-12T19:18:41.611Z,5.72
2022-09-12T19:21:14.302Z,6.60
2022-09-12T19:23:42.886Z,6.82
2022-09-12T19:26:13.412Z,6.15
2022-09-12T19:28:42.382Z,5.95
2022-09-12T19:31:13.149Z,5.43
2022-09-12T19:33:42.014Z,6.25
2022-09-12T19:36:27.561Z,5.72
2022-09-12T19:39:01.896Z,5.10
2022-09-12T19:41:29.829Z,5.68
2022-09-12T19:43:57.874Z,5.53
2022-09-12T19:46:27.340Z,5.70
2022-09-12T19:48:55.476Z,5.35
2022-09-12T19:51:24.203Z,5.90
2022-09-12T19:53:52.956Z,6.63
2022-09-12T19:56:22.304Z,6.13
2022-09-12T19:58:55.691Z,6.82
2022-09-12T20:01:27.699Z,6.35
2022-09-12T20:03:55.535Z,6.57
2022-09-12T20:06:23.505Z,6.97
2022-09-12T20:08:51.534Z,6.68
2022-09-12T20:11:21.768Z,6.35
2022-09-12T20:13:51.368Z,6.05
2022-09-12T20:16:22.575Z,7.38
2022-09-12T20:18:54.524Z,6.97
2022-09-12T20:21:30.825Z,6.90
2022-09-12T20:24:01.674Z,7.57
2022-09-12T20:26:30.203Z,7.20
2022-09-12T20:28:59.884Z,7.50
2022-09-12T20:31:28.074Z,7.13
2022-09-12T20:33:56.317Z,8.32
2022-09-12T20:36:24.077Z,7.22
2022-09-12T20:38:53.149Z,7.47
2022-09-12T20:41:22.464Z,6.65
2022-09-12T20:43:51.415Z,7.35
2022-09-12T20:46:22.526Z,7.57
2022-09-12T20:48:51.250Z,7.70
2022-09-12T20:51:20.344Z,7.45
2022-09-12T20:53:49.181Z,7.10
2022-09-12T20:56:17.316Z,7.72
2022-09-12T20:58:45.077Z,7.68
2022-09-12T21:01:16.023Z,7.85
2022-09-12T21:03:47.023Z,7.50
2022-09-12T21:06:17.284Z,7.82
2022-09-12T21:08:46.128Z,7.68
2022-09-12T21:11:15.150Z,8.10
2022-09-12T21:13:43.300Z,7.90
2022-09-12T21:16:14.609Z,8.60
2022-09-12T21:18:42.744Z,8.68
2022-09-12T21:21:16.314Z,9.18
2022-09-12T21:23:44.320Z,9.57
2022-09-12T21:26:12.141Z,8.60
2022-09-12T21:28:40.369Z,8.93
2022-09-12T21:31:08.625Z,9.23
2022-09-12T21:33:36.411Z,10.00
2022-09-12T21:36:05.517Z,9.75
2022-09-12T21:38:35.474Z,8.90
2022-09-12T21:41:04.509Z,9.02
2022-09-12T21:43:32.350Z,10.32
2022-09-12T21:46:00.758Z,9.65
2022-09-12T21:48:28.798Z,10.20
2022-09-12T21:50:56.770Z,9.82
2022-09-12T21:53:25.484Z,9.88
2022-09-12T21:55:54.641Z,9.45
2022-09-12T21:58:22.398Z,10.75
2022-09-12T22:00:51.147Z,9.82
2022-09-12T22:03:18.917Z,10.13
2022-09-12T22:05:51.296Z,10.07
2022-09-12T22:08:19.300Z,9.35
2022-09-12T22:10:47.201Z,10.18
2022-09-12T22:13:16.534Z,10.40
2022-09-12T22:15:45.355Z,9.02
2022-09-12T22:18:13.187Z,10.15
2022-09-12T22:20:41.000Z,9.30
2022-09-12T22:23:26.656Z,10.57
2022-09-12T22:25:56.575Z,10.27
2022-09-12T22:28:25.826Z,10.88
2022-09-12T22:30:55.061Z,10.90
2022-09-12T22:33:22.887Z,11.15
2022-09-12T22:35:50.773Z,12.52
2022-09-12T22:38:18.570Z,14.18
2022-09-12T22:40:46.621Z,12.80
2022-09-12T22:43:14.367Z,11.30
2022-09-12T22:45:44.006Z,12.27
2022-09-12T22:48:11.911Z,13.80
2022-09-12T22:50:39.764Z,12.07
2022-09-12T22:53:08.105Z,11.85
2022-09-12T22:55:36.271Z,12.65
2022-09-12T22:58:04.091Z,12.35
2022-09-12T23:00:32.105Z,13.65
2022-09-12T23:03:01.532Z,13.90
2022-09-12T23:05:29.873Z,12.13
2022-09-12T23:07:57.596Z,11.60
2022-09-12T23:10:25.968Z,11.55
2022-09-12T23:12:53.724Z,12.20
2022-09-12T23:15:21.817Z,11.57
2022-09-12T23:17:49.638Z,11.18
2022-09-12T23:20:18.682Z,11.43
2022-09-12T23:22:46.582Z,10.98
2022-09-12T23:25:14.874Z,11.40
2022-09-12T23:27:43.229Z,12.18
2022-09-12T23:30:12.942Z,12.70
2022-09-12T23:32:40.661Z,11.40
2022-09-12T23:35:08.752Z,11.88
2022-09-12T23:37:37.963Z,10.73
2022-09-12T23:40:06.796Z,11.32
2022-09-12T23:42:34.541Z,11.32
2022-09-12T23:45:02.454Z,10.35
2022-09-12T23:47:30.442Z,11.18
2022-09-12T23:49:58.394Z,11.52
2022-09-12T23:52:26.285Z,10.90
2022-09-12T23:54:55.440Z,11.07
2022-09-12T23:57:23.320Z,10.40
2022-09-12T23:59:51.236Z,10.77
